Time;durP1;ratioP1;P1;durP2;ratioP2;P2;SDS_P1;SDS_P2;PMS_P1;PMS_P2;Temp;Humidity;BMP_temperature;BMP_pressure;BME280_temperature;BME280_humidity;BME280_pressure;Samples;Min_cycle;Max_cycle;Signal;HPM_P1;HPM_P2
2023/11/12 00:00:53;;;;;;;29.10;16.87;;;6.60;99.90;;;;;;5100975;28;20284;-43
2023/11/12 00:03:20;;;;;;;31.10;16.37;;;6.60;99.90;;;;;;5093818;28;20258;-43
2023/11/12 00:05:46;;;;;;;35.50;16.57;;;6.60;99.90;;;;;;5101861;28;20679;-45
2023/11/12 00:08:13;;;;;;;27.07;15.27;;;6.60;99.90;;;;;;5092934;28;20876;-42
2023/11/12 00:10:40;;;;;;;34.47;16.90;;;6.60;99.90;;;;;;5103226;28;20204;-46
2023/11/12 00:13:07;;;;;;;32.03;15.70;;;6.60;99.90;;;;;;5071184;28;20216;-48
2023/11/12 00:15:34;;;;;;;31.13;16.43;;;6.60;99.90;;;;;;5102962;28;20193;-48
2023/11/12 00:18:02;;;;;;;31.57;15.23;;;6.60;99.90;;;;;;5102122;28;20258;-45
2023/11/12 00:20:29;;;;;;;32.83;15.67;;;6.60;99.90;;;;;;5100194;27;20205;-43
2023/11/12 00:22:56;;;;;;;29.00;15.03;;;6.60;99.90;;;;;;5096689;28;20209;-46
2023/11/12 00:25:24;;;;;;;27.67;14.83;;;6.60;99.90;;;;;;5104935;27;20695;-44
2023/11/12 00:27:51;;;;;;;30.00;15.10;;;6.60;99.90;;;;;;5104663;28;20197;-46
2023/11/12 00:30:18;;;;;;;30.00;15.10;;;6.60;99.90;;;;;;5076677;28;20201;-45
2023/11/12 00:32:45;;;;;;;29.47;14.37;;;6.60;99.90;;;;;;5107725;27;20738;-45
2023/11/12 00:35:13;;;;;;;29.10;15.47;;;6.60;99.90;;;;;;5097845;28;21928;-44
2023/11/12 00:37:40;;;;;;;30.23;15.47;;;6.70;99.90;;;;;;5103041;28;20213;-43
2023/11/12 00:40:08;;;;;;;33.37;15.50;;;6.70;99.90;;;;;;5114041;27;20185;-44
2023/11/12 00:42:35;;;;;;;29.73;15.50;;;6.60;99.90;;;;;;5104650;28;20201;-44
2023/11/12 00:45:02;;;;;;;26.13;14.17;;;6.70;99.90;;;;;;5067147;28;20202;-43
2023/11/12 00:47:29;;;;;;;29.80;15.60;;;6.60;99.90;;;;;;5106119;28;20221;-45
2023/11/12 00:49:56;;;;;;;29.57;14.60;;;6.60;99.90;;;;;;5096942;27;20221;-45
2023/11/12 00:52:25;;;;;;;26.27;14.20;;;6.60;99.90;;;;;;5103157;28;20201;-45
2023/11/12 00:54:52;;;;;;;26.83;14.23;;;6.60;99.90;;;;;;5088700;28;20710;-44
2023/11/12 00:57:19;;;;;;;25.80;14.57;;;6.50;99.90;;;;;;5103822;28;20253;-46
2023/11/12 00:59:46;;;;;;;28.50;14.47;;;6.50;99.90;;;;;;5068577;28;20251;-45
2023/11/12 01:02:16;;;;;;;28.50;15.03;;;6.50;99.90;;;;;;5105258;28;20786;-44
2023/11/12 01:04:43;;;;;;;28.23;14.87;;;6.50;99.90;;;;;;5098181;28;20221;-43
2023/11/12 01:07:09;;;;;;;26.23;14.63;;;6.50;99.90;;;;;;5102294;28;20220;-45
2023/11/12 01:09:38;;;;;;;24.87;13.83;;;6.60;99.90;;;;;;5097718;28;20193;-45
2023/11/12 01:12:05;;;;;;;26.70;13.97;;;6.50;99.90;;;;;;5100302;27;20266;-47
2023/11/12 01:14:33;;;;;;;28.30;13.77;;;6.50;99.90;;;;;;5096859;28;20202;-45
2023/11/12 01:17:01;;;;;;;21.07;12.93;;;6.50;99.90;;;;;;5084003;28;20832;-44
2023/11/12 01:19:28;;;;;;;24.77;13.77;;;6.50;99.90;;;;;;5105847;27;20328;-44
2023/11/12 01:21:55;;;;;;;27.17;14.33;;;6.50;99.90;;;;;;5100394;27;20186;-44
2023/11/12 01:24:22;;;;;;;26.57;15.03;;;6.50;99.90;;;;;;5105686;28;20220;-43
2023/11/12 01:26:51;;;;;;;26.53;13.60;;;6.50;99.90;;;;;;5097405;28;20833;-43
2023/11/12 01:29:18;;;;;;;23.23;13.90;;;6.40;99.90;;;;;;5103899;28;20201;-44
2023/11/12 01:31:45;;;;;;;24.80;13.60;;;6.40;99.90;;;;;;5074593;27;20201;-48
2023/11/12 01:34:14;;;;;;;27.63;13.83;;;6.40;99.90;;;;;;5104479;27;20677;-43
2023/11/12 01:36:40;;;;;;;25.10;12.87;;;6.40;99.90;;;;;;5099643;27;20228;-44
2023/11/12 01:39:08;;;;;;;21.47;12.17;;;6.40;99.90;;;;;;5101356;28;20269;-46
2023/11/12 01:41:35;;;;;;;24.27;12.60;;;6.40;99.90;;;;;;5096679;28;20224;-45
2023/11/12 01:44:03;;;;;;;22.87;12.37;;;6.40;99.90;;;;;;5104078;27;20902;-47
2023/11/12 01:46:31;;;;;;;21.30;11.73;;;6.40;99.90;;;;;;5081302;27;20216;-45
2023/11/12 01:48:59;;;;;;;23.13;13.13;;;6.40;99.90;;;;;;5103572;27;20189;-45
2023/11/12 01:51:28;;;;;;;22.57;12.70;;;6.50;99.90;;;;;;5102580;28;20717;-45
2023/11/12 01:53:54;;;;;;;20.77;12.00;;;6.50;99.90;;;;;;5093569;28;20189;-46
2023/11/12 01:56:22;;;;;;;21.50;11.77;;;6.50;99.90;;;;;;5095262;28;20213;-44
2023/11/12 01:58:51;;;;;;;22.63;12.33;;;6.50;99.90;;;;;;5089991;28;20208;-44
2023/11/12 02:01:20;;;;;;;18.23;11.90;;;6.40;99.90;;;;;;5082791;27;20215;-46
2023/11/12 02:03:48;;;;;;;23.83;12.47;;;6.50;99.90;;;;;;5091024;28;20221;-45
2023/11/12 02:06:15;;;;;;;20.10;11.33;;;6.50;99.90;;;;;;5101251;27;20221;-44
2023/11/12 02:08:42;;;;;;;23.33;12.20;;;6.50;99.90;;;;;;5091213;28;20251;-43
2023/11/12 02:11:13;;;;;;;23.10;11.70;;;6.40;99.90;;;;;;5090475;28;20750;-44
2023/11/12 02:13:43;;;;;;;19.70;11.60;;;6.50;99.90;;;;;;5102391;28;20189;-45
2023/11/12 02:16:10;;;;;;;22.90;12.43;;;6.50;99.90;;;;;;5104239;27;20742;-44
2023/11/12 02:18:38;;;;;;;22.87;12.67;;;6.50;99.90;;;;;;5072251;28;20896;-43
2023/11/12 02:21:06;;;;;;;21.00;11.83;;;6.50;99.90;;;;;;5104075;27;20638;-44
2023/11/12 02:23:39;;;;;;;23.97;11.73;;;6.50;99.90;;;;;;5099444;28;20185;-44
2023/11/12 02:26:07;;;;;;;26.10;13.67;;;6.50;99.90;;;;;;5096965;28;20290;-46
2023/11/12 02:28:34;;;;;;;27.17;12.60;;;6.50;99.90;;;;;;5097294;28;20201;-48
2023/11/12 02:31:01;;;;;;;25.77;12.73;;;6.50;99.90;;;;;;5096124;28;20712;-45
2023/11/12 02:33:28;;;;;;;26.37;12.33;;;6.50;99.90;;;;;;5071125;28;20217;-44
2023/11/12 02:35:55;;;;;;;24.73;12.70;;;6.50;99.90;;;;;;5102978;28;20224;-45
2023/11/12 02:38:23;;;;;;;26.67;12.73;;;6.50;99.90;;;;;;5092351;28;20201;-47
2023/11/12 02:40:52;;;;;;;24.77;12.20;;;6.50;99.90;;;;;;5099095;28;20186;-48
2023/11/12 02:43:20;;;;;;;25.37;12.20;;;6.50;99.90;;;;;;5092877;28;20258;-46
2023/11/12 02:45:46;;;;;;;25.97;12.20;;;6.50;99.90;;;;;;5101614;28;20228;-47
2023/11/12 02:48:13;;;;;;;22.37;11.33;;;6.50;99.90;;;;;;5092646;27;20281;-46
2023/11/12 02:50:40;;;;;;;24.50;12.07;;;6.50;99.90;;;;;;5082681;28;20190;-46
2023/11/12 02:53:07;;;;;;;26.27;12.07;;;6.50;99.90;;;;;;5105655;27;20197;-46
2023/11/12 02:55:35;;;;;;;24.57;12.67;;;6.50;99.90;;;;;;5098790;28;20177;-45
2023/11/12 02:58:03;;;;;;;28.53;12.17;;;6.50;99.90;;;;;;5094910;28;20573;-44
2023/11/12 03:00:30;;;;;;;25.97;12.73;;;6.50;99.90;;;;;;5098269;28;20995;-45
2023/11/12 03:02:58;;;;;;;25.27;11.70;;;6.50;99.90;;;;;;5102091;28;20217;-44
2023/11/12 03:05:25;;;;;;;22.47;11.57;;;6.50;99.90;;;;;;5071907;27;20217;-49
2023/11/12 03:07:53;;;;;;;31.33;13.00;;;6.50;99.90;;;;;;5097528;27;20614;-44
2023/11/12 03:10:20;;;;;;;24.47;11.67;;;6.50;99.90;;;;;;5099512;28;20673;-44
2023/11/12 03:12:47;;;;;;;27.10;12.23;;;6.50;99.90;;;;;;5096038;27;20300;-44
2023/11/12 03:15:16;;;;;;;22.83;11.50;;;6.50;99.90;;;;;;5101582;27;20193;-49
2023/11/12 03:17:43;;;;;;;20.17;11.33;;;6.50;99.90;;;;;;5100429;28;20221;-44
2023/11/12 03:20:13;;;;;;;22.87;11.43;;;6.50;99.90;;;;;;5075066;28;20201;-45
2023/11/12 03:22:40;;;;;;;27.73;12.07;;;6.50;99.90;;;;;;5098873;28;20193;-44
2023/11/12 03:25:09;;;;;;;26.17;12.57;;;6.50;99.90;;;;;;5095182;28;20224;-50
2023/11/12 03:27:37;;;;;;;28.87;10.87;;;6.50;99.90;;;;;;5092160;27;21563;-44
2023/11/12 03:30:07;;;;;;;26.83;11.20;;;6.50;99.90;;;;;;5100406;28;20197;-48
2023/11/12 03:32:35;;;;;;;28.83;11.13;;;6.50;99.90;;;;;;5099551;28;20235;-46
2023/11/12 03:35:02;;;;;;;30.87;11.20;;;6.50;99.90;;;;;;5069115;28;20198;-44
2023/11/12 03:37:29;;;;;;;28.33;13.17;;;6.50;99.90;;;;;;5099201;28;20209;-45
2023/11/12 03:39:57;;;;;;;26.80;11.80;;;6.50;99.90;;;;;;5095159;28;20296;-44
2023/11/12 03:42:24;;;;;;;24.37;11.13;;;6.50;99.90;;;;;;5088193;28;20200;-45
2023/11/12 03:44:51;;;;;;;28.57;12.90;;;6.50;99.90;;;;;;5101969;28;20711;-44
2023/11/12 03:47:18;;;;;;;31.73;12.57;;;6.50;99.90;;;;;;5096276;28;20205;-45
2023/11/12 03:49:46;;;;;;;24.73;11.77;;;6.50;99.90;;;;;;5072477;27;20205;-48
2023/11/12 03:52:13;;;;;;;29.00;11.70;;;6.50;99.90;;;;;;5100936;28;20193;-46
2023/11/12 03:54:40;;;;;;;30.60;12.50;;;6.50;99.90;;;;;;5092284;28;20209;-44
2023/11/12 03:57:07;;;;;;;34.80;12.97;;;6.50;99.90;;;;;;5094293;28;20274;-45
2023/11/12 03:59:36;;;;;;;28.43;12.03;;;6.50;99.90;;;;;;5099050;28;20196;-46
2023/11/12 04:02:03;;;;;;;27.10;10.93;;;6.50;99.90;;;;;;5100034;28;20285;-44
2023/11/12 04:04:30;;;;;;;35.10;11.40;;;6.50;99.90;;;;;;5098909;28;20185;-48
2023/11/12 04:06:58;;;;;;;30.93;12.10;;;6.50;99.90;;;;;;5069243;28;20221;-47
2023/11/12 04:09:25;;;;;;;30.43;12.47;;;6.50;99.90;;;;;;5090386;28;20524;-43
2023/11/12 04:11:52;;;;;;;29.70;11.87;;;6.60;99.90;;;;;;5096160;28;20684;-48
2023/11/12 04:14:19;;;;;;;26.40;12.03;;;6.60;99.90;;;;;;5091098;28;20683;-43
2023/11/12 04:16:46;;;;;;;33.10;13.07;;;6.60;99.90;;;;;;5099489;28;20214;-48
2023/11/12 04:19:13;;;;;;;29.17;13.13;;;6.60;99.90;;;;;;5099684;28;20185;-43
2023/11/12 04:21:40;;;;;;;39.47;13.67;;;6.60;99.90;;;;;;5066806;28;20285;-47
2023/11/12 04:24:09;;;;;;;31.07;12.53;;;6.70;99.90;;;;;;5101262;28;20219;-50
2023/11/12 04:26:36;;;;;;;31.70;12.47;;;6.60;99.90;;;;;;5089309;28;20299;-46
2023/11/12 04:29:06;;;;;;;32.77;13.00;;;6.70;99.90;;;;;;5093325;28;20262;-46
2023/11/12 04:31:35;;;;;;;29.67;12.30;;;6.70;99.90;;;;;;5098948;28;20272;-44
2023/11/12 04:34:03;;;;;;;36.83;12.43;;;6.60;99.90;;;;;;5102846;28;20201;-46
2023/11/12 04:36:35;;;;;;;33.27;13.30;;;6.70;99.90;;;;;;5069221;28;20214;-46
2023/11/12 04:39:02;;;;;;;35.70;13.47;;;6.70;99.90;;;;;;5098842;28;20197;-44
2023/11/12 04:41:30;;;;;;;30.77;13.10;;;6.70;99.90;;;;;;5091176;28;20193;-44
2023/11/12 04:43:57;;;;;;;32.67;12.43;;;6.70;99.90;;;;;;5095126;28;20208;-49
2023/11/12 04:46:25;;;;;;;31.50;12.57;;;6.70;99.90;;;;;;5103188;28;20212;-44
2023/11/12 04:48:52;;;;;;;30.93;12.73;;;6.70;99.90;;;;;;5102412;28;20193;-44
2023/11/12 04:51:19;;;;;;;35.90;13.30;;;6.70;99.90;;;;;;5082687;28;20676;-47
2023/11/12 04:53:46;;;;;;;33.13;13.57;;;6.80;99.90;;;;;;5089168;28;20221;-45
2023/11/12 04:56:13;;;;;;;32.43;13.07;;;6.80;99.90;;;;;;5099321;28;20687;-45
2023/11/12 04:58:42;;;;;;;35.10;14.50;;;6.80;99.90;;;;;;5089992;28;20197;-46
2023/11/12 05:01:08;;;;;;;29.93;13.10;;;6.80;99.90;;;;;;5084581;28;20278;-44
2023/11/12 05:03:35;;;;;;;37.40;13.67;;;6.80;99.90;;;;;;5101599;28;20284;-45
2023/11/12 05:06:03;;;;;;;50.23;15.93;;;6.80;99.90;;;;;;5102665;28;20295;-48
2023/11/12 05:08:30;;;;;;;38.83;14.07;;;6.80;99.90;;;;;;5078608;27;20200;-44
2023/11/12 05:10:57;;;;;;;35.47;14.03;;;6.80;99.90;;;;;;5105865;28;20247;-44
2023/11/12 05:13:24;;;;;;;36.77;14.27;;;6.80;99.90;;;;;;5095597;28;20204;-45
2023/11/12 05:15:52;;;;;;;40.43;15.23;;;6.90;99.90;;;;;;5094768;28;20612;-44
2023/11/12 05:18:19;;;;;;;36.63;14.27;;;6.90;99.90;;;;;;5101886;28;20203;-47
2023/11/12 05:20:46;;;;;;;39.57;14.10;;;6.90;99.90;;;;;;5104605;28;20189;-46
2023/11/12 05:23:12;;;;;;;37.97;14.63;;;6.90;99.90;;;;;;5085114;27;20193;-46
2023/11/12 05:25:39;;;;;;;37.93;15.47;;;6.90;99.90;;;;;;5096730;27;20236;-44
2023/11/12 05:28:06;;;;;;;43.10;15.37;;;6.90;99.90;;;;;;5097757;27;20201;-47
2023/11/12 05:30:34;;;;;;;37.03;14.17;;;6.90;99.90;;;;;;5096248;28;20205;-47
2023/11/12 05:33:02;;;;;;;30.70;14.53;;;6.90;99.90;;;;;;5109081;27;20194;-47
2023/11/12 05:35:29;;;;;;;38.43;15.30;;;7.00;99.90;;;;;;5102454;28;20212;-44
2023/11/12 05:37:56;;;;;;;36.47;14.50;;;7.00;99.90;;;;;;5105706;27;20197;-45
2023/11/12 05:40:23;;;;;;;34.93;15.07;;;7.00;99.90;;;;;;5068320;27;20393;-46
2023/11/12 05:42:50;;;;;;;35.50;14.57;;;7.00;99.90;;;;;;5105592;28;20201;-47
2023/11/12 05:45:19;;;;;;;31.70;15.67;;;7.10;99.90;;;;;;5088102;28;20703;-45
2023/11/12 05:47:45;;;;;;;37.07;14.97;;;7.00;99.90;;;;;;5098906;28;20197;-44
2023/11/12 05:50:14;;;;;;;32.93;14.17;;;7.10;99.90;;;;;;5102608;28;20211;-46
2023/11/12 05:52:42;;;;;;;34.73;15.43;;;7.10;99.90;;;;;;5104427;27;20234;-44
2023/11/12 05:55:09;;;;;;;33.97;13.60;;;7.10;99.90;;;;;;5070508;27;20273;-44
2023/11/12 05:57:36;;;;;;;35.90;15.17;;;7.10;99.90;;;;;;5103039;28;20262;-44
2023/11/12 06:00:03;;;;;;;35.97;15.43;;;7.20;99.90;;;;;;5098151;28;20205;-45
2023/11/12 06:02:38;;;;;;;35.77;15.17;;;7.20;99.90;;;;;;5096384;27;20224;-44
2023/11/12 06:05:06;;;;;;;34.13;14.43;;;7.20;99.90;;;;;;5103820;27;20244;-46
2023/11/12 06:07:34;;;;;;;36.80;15.77;;;7.20;99.90;;;;;;5102018;27;20208;-44
2023/11/12 06:10:02;;;;;;;34.23;15.63;;;7.20;99.90;;;;;;5101484;28;20601;-49
2023/11/12 06:12:30;;;;;;;29.40;14.57;;;7.20;99.90;;;;;;5082591;27;20296;-44
2023/11/12 06:14:56;;;;;;;27.80;12.47;;;7.20;99.90;;;;;;5096510;28;20203;-46
2023/11/12 06:17:24;;;;;;;25.00;13.20;;;7.20;99.90;;;;;;5100764;27;20282;-44
2023/11/12 06:19:51;;;;;;;25.10;13.10;;;7.20;99.90;;;;;;5093454;27;20205;-44
2023/11/12 06:22:19;;;;;;;21.97;12.40;;;7.20;99.90;;;;;;5083600;28;20219;-45
2023/11/12 06:24:48;;;;;;;24.87;12.10;;;7.20;99.90;;;;;;5105482;27;20193;-44
2023/11/12 06:27:14;;;;;;;17.80;10.97;;;7.20;99.90;;;;;;5063885;28;20221;-45
2023/11/12 06:29:42;;;;;;;15.43;11.73;;;7.20;99.90;;;;;;5105054;27;20249;-45
2023/11/12 06:32:09;;;;;;;20.70;11.77;;;7.20;99.90;;;;;;5099850;27;20666;-44
2023/11/12 06:34:35;;;;;;;17.43;11.53;;;7.30;99.90;;;;;;5093546;28;20197;-43
2023/11/12 06:37:03;;;;;;;20.47;12.17;;;7.20;99.90;;;;;;5111748;27;20222;-44
2023/11/12 06:39:30;;;;;;;16.30;11.20;;;7.30;99.90;;;;;;5102141;28;20217;-46
2023/11/12 06:41:59;;;;;;;16.70;11.93;;;7.30;99.90;;;;;;5101062;27;20235;-44
2023/11/12 06:44:25;;;;;;;17.13;11.07;;;7.30;99.90;;;;;;5085483;27;20197;-44
2023/11/12 06:46:52;;;;;;;16.17;11.90;;;7.20;99.90;;;;;;5097494;28;20298;-44
2023/11/12 06:49:19;;;;;;;16.37;11.97;;;7.30;99.90;;;;;;5094956;27;20964;-45
2023/11/12 06:51:46;;;;;;;16.13;10.73;;;7.30;99.90;;;;;;5104389;28;20221;-45
2023/11/12 06:54:13;;;;;;;16.17;11.20;;;7.30;99.90;;;;;;5104153;27;20238;-43
2023/11/12 06:56:39;;;;;;;15.17;10.70;;;7.30;99.90;;;;;;5105958;27;20208;-44
2023/11/12 06:59:08;;;;;;;15.53;10.77;;;7.30;99.90;;;;;;5075149;27;20711;-51
2023/11/12 07:01:37;;;;;;;14.43;9.77;;;7.30;99.90;;;;;;5096365;27;20689;-45
2023/11/12 07:04:04;;;;;;;13.87;11.20;;;7.30;99.90;;;;;;5104652;27;20245;-44
2023/11/12 07:06:31;;;;;;;16.50;10.70;;;7.30;99.90;;;;;;5094065;28;20229;-46
2023/11/12 07:08:58;;;;;;;13.83;10.93;;;7.30;99.90;;;;;;5092532;28;20194;-45
2023/11/12 07:11:25;;;;;;;14.10;10.33;;;7.30;99.90;;;;;;5103592;28;20314;-43
2023/11/12 07:13:52;;;;;;;11.33;10.13;;;7.30;99.90;;;;;;5070353;27;20296;-43
2023/11/12 07:16:20;;;;;;;16.23;11.33;;;7.30;99.90;;;;;;5094972;28;20220;-44
2023/11/12 07:18:47;;;;;;;12.47;10.00;;;7.30;99.90;;;;;;5093398;28;20220;-46
2023/11/12 07:21:23;;;;;;;13.77;10.27;;;7.30;99.90;;;;;;5093971;28;20206;-43
2023/11/12 07:23:50;;;;;;;13.60;10.07;;;7.30;99.90;;;;;;5099567;28;20546;-45
2023/11/12 07:26:17;;;;;;;14.63;9.47;;;7.30;99.90;;;;;;5101945;28;20232;-44
2023/11/12 07:28:44;;;;;;;14.83;9.97;;;7.30;99.90;;;;;;5073900;27;20269;-48
2023/11/12 07:31:11;;;;;;;17.07;9.93;;;7.30;99.90;;;;;;5100820;28;20187;-45
2023/11/12 07:33:39;;;;;;;12.13;9.47;;;7.20;99.90;;;;;;5095207;28;20232;-44
2023/11/12 07:36:07;;;;;;;16.07;9.40;;;7.20;99.90;;;;;;5089144;28;20267;-43
2023/11/12 07:38:35;;;;;;;15.10;10.03;;;7.20;99.90;;;;;;5102488;28;20190;-43
2023/11/12 07:41:03;;;;;;;14.07;9.00;;;7.20;99.90;;;;;;5098863;28;20811;-44
2023/11/12 07:43:29;;;;;;;11.53;9.20;;;7.20;99.90;;;;;;5078207;27;20213;-43
2023/11/12 07:45:56;;;;;;;12.33;9.67;;;7.30;99.90;;;;;;5095436;28;20221;-44
2023/11/12 07:48:23;;;;;;;15.13;9.90;;;7.30;99.90;;;;;;5098568;27;20201;-42
2023/11/12 07:50:51;;;;;;;14.57;10.07;;;7.30;99.90;;;;;;5106972;27;20193;-44
2023/11/12 07:53:18;;;;;;;15.00;10.27;;;7.30;99.90;;;;;;5092899;28;20579;-43
2023/11/12 07:55:45;;;;;;;13.30;10.30;;;7.30;99.90;;;;;;5101528;28;20677;-46
2023/11/12 07:58:11;;;;;;;13.33;10.37;;;7.40;99.90;;;;;;5100709;28;20238;-43
2023/11/12 08:00:38;;;;;;;16.03;11.63;;;7.40;99.90;;;;;;5073240;28;20217;-47
2023/11/12 08:03:05;;;;;;;15.87;11.20;;;7.40;99.90;;;;;;5101341;27;20246;-43
2023/11/12 08:05:32;;;;;;;15.90;12.30;;;7.50;99.90;;;;;;5095428;28;20205;-43
2023/11/12 08:08:00;;;;;;;18.67;13.10;;;7.50;99.90;;;;;;5091784;28;20321;-46
2023/11/12 08:10:27;;;;;;;18.03;12.53;;;7.50;99.90;;;;;;5102934;28;20250;-43
2023/11/12 08:12:54;;;;;;;17.50;12.87;;;7.50;99.90;;;;;;5099598;28;20190;-44
2023/11/12 08:15:22;;;;;;;24.53;14.63;;;7.50;99.90;;;;;;5074549;28;20209;-45
2023/11/12 08:17:49;;;;;;;19.67;14.10;;;7.50;99.90;;;;;;5100756;28;20209;-43
2023/11/12 08:20:16;;;;;;;19.60;14.53;;;7.50;99.90;;;;;;5103773;28;20242;-45
2023/11/12 08:22:43;;;;;;;18.70;13.23;;;7.40;99.90;;;;;;5102234;28;20197;-45
2023/11/12 08:25:12;;;;;;;20.50;14.47;;;7.50;99.90;;;;;;5095311;28;20217;-46
2023/11/12 08:27:39;;;;;;;19.17;14.57;;;7.40;99.90;;;;;;5103459;28;20220;-44
2023/11/12 08:30:07;;;;;;;19.30;13.47;;;7.50;99.90;;;;;;5066667;28;20259;-45
2023/11/12 08:32:35;;;;;;;22.67;15.27;;;7.50;99.90;;;;;;5083335;28;20197;-48
2023/11/12 08:35:03;;;;;;;19.43;13.70;;;7.50;99.90;;;;;;5089441;28;20198;-45
2023/11/12 08:37:29;;;;;;;20.47;15.07;;;7.50;99.90;;;;;;5097829;28;20221;-42
2023/11/12 08:39:56;;;;;;;22.00;15.73;;;7.50;99.90;;;;;;5095971;28;20231;-43
2023/11/12 08:42:26;;;;;;;18.90;14.20;;;7.50;99.90;;;;;;5104237;28;20189;-42
2023/11/12 08:44:54;;;;;;;22.77;15.40;;;7.50;99.90;;;;;;5106117;28;20277;-45
2023/11/12 08:47:21;;;;;;;22.90;15.30;;;7.40;99.90;;;;;;5071764;28;20225;-42
2023/11/12 08:49:48;;;;;;;21.60;15.13;;;7.40;99.90;;;;;;5095759;28;20209;-45
2023/11/12 08:52:15;;;;;;;25.97;15.13;;;7.50;99.90;;;;;;5108380;27;20190;-42
2023/11/12 08:54:42;;;;;;;21.20;15.27;;;7.40;99.90;;;;;;5103635;28;20186;-43
2023/11/12 08:57:09;;;;;;;19.40;15.07;;;7.40;99.90;;;;;;5096596;28;20213;-44
2023/11/12 08:59:37;;;;;;;24.70;16.70;;;7.50;99.90;;;;;;5102015;27;20205;-43
2023/11/12 09:02:06;;;;;;;23.07;16.77;;;7.50;99.90;;;;;;5072279;28;20731;-43
2023/11/12 09:04:34;;;;;;;23.97;15.90;;;7.50;99.90;;;;;;5101774;28;20190;-49
2023/11/12 09:07:01;;;;;;;21.50;15.67;;;7.50;99.90;;;;;;5092846;28;20686;-45
2023/11/12 09:09:27;;;;;;;19.37;15.03;;;7.50;99.90;;;;;;5092669;27;20213;-46
2023/11/12 09:11:56;;;;;;;22.10;15.73;;;7.50;99.90;;;;;;5090233;28;20197;-45
2023/11/12 09:14:23;;;;;;;22.13;16.03;;;7.50;99.90;;;;;;5103722;27;20194;-47
2023/11/12 09:16:51;;;;;;;27.73;17.73;;;7.60;99.90;;;;;;5104376;28;20209;-46
2023/11/12 09:19:18;;;;;;;24.33;15.67;;;7.60;99.90;;;;;;5071839;28;20210;-45
2023/11/12 09:21:45;;;;;;;26.00;17.23;;;7.60;99.90;;;;;;5091361;28;20193;-48
2023/11/12 09:24:13;;;;;;;21.47;15.07;;;7.60;99.90;;;;;;5105142;28;20202;-45
2023/11/12 09:26:40;;;;;;;24.13;16.23;;;7.70;99.90;;;;;;5088355;27;20213;-44
2023/11/12 09:29:07;;;;;;;23.43;16.90;;;7.70;99.90;;;;;;5105432;28;20201;-47
2023/11/12 09:31:33;;;;;;;20.70;15.53;;;7.90;99.90;;;;;;5101072;28;20914;-48
2023/11/12 09:34:02;;;;;;;23.83;15.93;;;7.80;99.90;;;;;;5069187;28;20667;-45
2023/11/12 09:36:29;;;;;;;22.20;14.77;;;7.90;99.90;;;;;;5100223;28;20254;-46
2023/11/12 09:38:56;;;;;;;21.00;14.97;;;7.90;99.90;;;;;;5099580;28;20197;-46
2023/11/12 09:41:23;;;;;;;20.83;13.83;;;7.90;99.90;;;;;;5092061;28;20284;-46
2023/11/12 09:43:53;;;;;;;22.17;15.20;;;7.90;99.90;;;;;;5105414;27;20240;-44
2023/11/12 09:46:22;;;;;;;17.13;13.00;;;7.90;99.90;;;;;;5104180;27;20629;-48
2023/11/12 09:48:49;;;;;;;21.07;13.37;;;7.90;99.90;;;;;;5103860;28;20209;-45
2023/11/12 09:51:18;;;;;;;18.03;13.77;;;8.00;99.90;;;;;;5058112;28;21005;-44
2023/11/12 09:53:47;;;;;;;19.87;13.47;;;7.90;99.90;;;;;;5092247;28;20788;-48
2023/11/12 09:56:14;;;;;;;22.50;13.37;;;7.90;99.90;;;;;;5093423;28;20274;-46
2023/11/12 09:58:42;;;;;;;19.27;13.60;;;7.80;99.90;;;;;;5103837;28;20258;-47
2023/11/12 10:01:11;;;;;;;20.23;13.20;;;7.80;99.90;;;;;;5101384;27;20255;-45
2023/11/12 10:03:39;;;;;;;20.97;12.13;;;7.80;99.90;;;;;;5104213;28;20284;-44
2023/11/12 10:06:10;;;;;;;19.20;12.73;;;7.80;99.90;;;;;;5067823;27;20267;-45
2023/11/12 10:08:39;;;;;;;17.17;12.23;;;7.80;99.90;;;;;;5096352;28;20243;-44
2023/11/12 10:11:17;;;;;;;15.87;12.20;;;7.80;99.90;;;;;;5101030;28;20269;-43
2023/11/12 10:13:44;;;;;;;19.17;13.50;;;7.70;99.90;;;;;;5094345;28;20205;-45
2023/11/12 10:16:23;;;;;;;18.30;12.80;;;7.70;99.90;;;;;;5102091;27;20212;-44
2023/11/12 10:18:50;;;;;;;13.33;10.70;;;7.70;99.90;;;;;;5102428;28;20198;-44
2023/11/12 10:21:17;;;;;;;15.80;11.87;;;7.70;99.90;;;;;;5071192;27;21246;-43
2023/11/12 10:23:45;;;;;;;16.57;12.57;;;7.70;99.90;;;;;;5095254;28;20209;-45
2023/11/12 10:26:13;;;;;;;18.17;12.93;;;7.70;99.90;;;;;;5101796;28;20993;-44
2023/11/12 10:28:40;;;;;;;17.13;12.23;;;7.70;99.90;;;;;;5094390;28;20277;-43
2023/11/12 10:31:11;;;;;;;18.13;13.07;;;7.70;99.90;;;;;;5101072;28;20292;-45
2023/11/12 10:33:38;;;;;;;18.90;12.53;;;7.70;99.90;;;;;;5104090;27;20654;-44
2023/11/12 10:36:09;;;;;;;18.70;12.83;;;7.80;99.90;;;;;;5100721;27;20213;-44
2023/11/12 10:38:50;;;;;;;14.47;11.63;;;7.80;99.90;;;;;;5063925;28;20675;-44
2023/11/12 10:41:17;;;;;;;15.97;12.23;;;7.80;99.90;;;;;;5102892;28;20193;-45
2023/11/12 10:43:57;;;;;;;18.40;12.67;;;7.80;99.90;;;;;;5081057;27;20281;-46
2023/11/12 10:46:26;;;;;;;19.37;13.03;;;7.90;99.90;;;;;;5102997;28;20293;-44
2023/11/12 10:48:54;;;;;;;18.83;13.00;;;7.90;99.90;;;;;;5094801;28;20185;-46
2023/11/12 10:51:22;;;;;;;19.37;13.37;;;7.90;99.90;;;;;;5102289;27;20197;-45
2023/11/12 10:53:56;;;;;;;22.60;13.23;;;7.90;99.90;;;;;;5057819;27;20209;-46
2023/11/12 10:56:23;;;;;;;18.93;13.03;;;8.00;99.90;;;;;;5100627;28;20255;-47
2023/11/12 10:58:54;;;;;;;20.00;13.80;;;7.90;99.90;;;;;;5094339;27;20253;-46
2023/11/12 11:01:21;;;;;;;17.57;12.53;;;7.90;99.90;;;;;;5102960;28;20276;-45
2023/11/12 11:03:51;;;;;;;16.90;13.67;;;7.90;99.90;;;;;;5099823;28;20869;-45
2023/11/12 11:06:19;;;;;;;21.13;14.03;;;7.90;99.90;;;;;;5103326;28;20225;-43
2023/11/12 11:08:47;;;;;;;20.37;13.57;;;7.90;99.90;;;;;;5069787;27;20229;-42
2023/11/12 11:11:15;;;;;;;18.60;13.03;;;7.90;99.90;;;;;;5091539;28;20197;-45
2023/11/12 11:13:42;;;;;;;18.17;13.53;;;7.90;99.90;;;;;;5094559;28;20258;-42
2023/11/12 11:16:09;;;;;;;19.00;13.63;;;7.90;99.90;;;;;;5108724;27;20217;-41
2023/11/12 11:18:52;;;;;;;19.23;12.93;;;8.00;99.90;;;;;;5100895;27;20194;-43
2023/11/12 11:21:22;;;;;;;20.00;13.07;;;7.90;99.90;;;;;;5103914;27;20659;-44
2023/11/12 11:23:52;;;;;;;22.43;13.13;;;8.00;99.90;;;;;;5067090;28;23688;-41
2023/11/12 11:26:38;;;;;;;20.23;14.47;;;8.00;99.90;;;;;;5093929;28;20288;-45
2023/11/12 11:29:15;;;;;;;18.70;13.43;;;8.00;99.90;;;;;;5090619;27;20201;-46
2023/11/12 11:32:17;;;;;;;18.47;12.83;;;8.00;99.90;;;;;;5098828;28;20192;-45
2023/11/12 11:34:45;;;;;;;19.30;13.90;;;8.10;99.90;;;;;;5100214;27;20268;-43
2023/11/12 11:37:13;;;;;;;18.70;14.10;;;8.10;99.90;;;;;;5102633;28;20816;-49
2023/11/12 11:39:40;;;;;;;18.10;13.57;;;8.10;99.90;;;;;;5081598;28;20193;-43
2023/11/12 11:42:17;;;;;;;16.77;11.70;;;8.10;99.90;;;;;;5084950;27;20791;-49
2023/11/12 11:44:45;;;;;;;17.53;12.77;;;8.20;99.90;;;;;;5090768;28;20220;-44
2023/11/12 11:47:14;;;;;;;16.50;11.53;;;8.10;99.90;;;;;;5102250;28;20217;-48
2023/11/12 11:49:41;;;;;;;16.87;11.60;;;8.10;99.90;;;;;;5100387;28;20193;-42
2023/11/12 11:52:08;;;;;;;18.33;13.93;;;8.00;99.90;;;;;;5101971;28;20196;-45
2023/11/12 11:54:36;;;;;;;17.03;12.60;;;8.10;99.90;;;;;;5099758;28;20204;-46
2023/11/12 11:57:04;;;;;;;16.97;12.13;;;8.10;99.90;;;;;;5055963;28;20325;-46
2023/11/12 11:59:35;;;;;;;19.53;11.83;;;8.10;99.90;;;;;;5102700;27;20954;-44
2023/11/12 12:02:04;;;;;;;15.13;10.97;;;8.10;99.90;;;;;;5096400;28;20246;-48
2023/11/12 12:04:31;;;;;;;17.20;11.37;;;8.10;99.90;;;;;;5101874;28;20247;-44
2023/11/12 12:06:58;;;;;;;20.20;11.10;;;8.10;99.90;;;;;;5100058;28;20273;-44
2023/11/12 12:09:26;;;;;;;16.50;11.70;;;8.10;99.90;;;;;;5103592;28;20210;-45
2023/11/12 12:11:54;;;;;;;18.23;11.47;;;8.10;99.90;;;;;;5070849;28;20220;-43
2023/11/12 12:14:22;;;;;;;14.63;10.77;;;8.10;99.90;;;;;;5093096;28;20197;-45
2023/11/12 12:16:50;;;;;;;20.93;12.33;;;8.00;99.90;;;;;;5084130;28;20224;-47
2023/11/12 12:19:20;;;;;;;15.27;10.30;;;8.00;99.90;;;;;;5101553;28;20557;-45
2023/11/12 12:21:49;;;;;;;16.93;11.33;;;8.10;99.90;;;;;;5098853;28;20269;-43
2023/11/12 12:24:17;;;;;;;15.10;11.77;;;8.10;99.90;;;;;;5102192;28;20201;-46
2023/11/12 12:26:44;;;;;;;17.60;11.27;;;8.10;99.90;;;;;;5076542;28;20691;-50
2023/11/12 12:29:15;;;;;;;17.90;11.73;;;8.20;99.90;;;;;;5089317;27;20220;-48
2023/11/12 12:31:44;;;;;;;14.60;11.20;;;8.20;99.90;;;;;;5090861;28;20289;-48
2023/11/12 12:34:16;;;;;;;16.97;10.70;;;8.20;99.90;;;;;;5101971;28;20200;-46
2023/11/12 12:36:55;;;;;;;14.50;11.13;;;8.20;99.90;;;;;;5099487;28;20274;-50
2023/11/12 12:39:23;;;;;;;18.57;10.90;;;8.20;99.90;;;;;;5102402;28;20189;-46
2023/11/12 12:41:55;;;;;;;13.97;9.80;;;8.20;99.90;;;;;;5066917;28;22584;-46